Terminal Aerodrome Forecast
Issued by NWS

Home | Current Version | Previous Version | Text Only | Print | Product List | Glossary On
Versions: 1 2 3 4 5 6 7 8 9 10 11 12 13 14 15
000
FTUS43 KDMX 260523
TAFOTM
TAF
KOTM 260523Z 2606/2706 17005KT P6SM SCT045 BKN070
     FM260700 VRB05KT P6SM VCTS SCT030CB BKN060
     FM261200 VRB06KT P6SM SCT030 BKN150
     FM270000 15009KT P6SM VCTS SCT035CB BKN060=

USA.gov is the U.S. government's official web portal to all federal, state and local government web resources and services.